Time;durP1;ratioP1;P1;durP2;ratioP2;P2;SDS_P1;SDS_P2;PMS_P1;PMS_P2;Temp;Humidity;BMP_temperature;BMP_pressure;BME280_temperature;BME280_humidity;BME280_pressure;Samples;Min_cycle;Max_cycle;Signal;HPM_P1;HPM_P2
2023/11/27 00:02:08;;;;;;;6.77;2.80;;;4.80;99.90;;;;;;4956533;29;20031;-71
2023/11/27 00:04:34;;;;;;;7.27;2.87;;;4.80;99.90;;;;;;4955856;29;20023;-72
2023/11/27 00:07:00;;;;;;;8.23;2.83;;;4.80;99.90;;;;;;4966671;28;20517;-73
2023/11/27 00:09:25;;;;;;;9.87;2.73;;;4.80;99.90;;;;;;4955381;29;20038;-72
2023/11/27 00:11:51;;;;;;;5.70;2.83;;;4.80;99.90;;;;;;4955213;29;20035;-72
2023/11/27 00:14:17;;;;;;;5.13;2.37;;;4.80;99.90;;;;;;4956729;29;20109;-72
2023/11/27 00:16:42;;;;;;;5.20;2.60;;;4.80;99.90;;;;;;4969072;28;20040;-72
2023/11/27 00:19:08;;;;;;;7.83;2.77;;;4.80;99.90;;;;;;4954887;29;20039;-73
2023/11/27 00:21:34;;;;;;;7.60;2.93;;;4.80;99.90;;;;;;4951852;29;20047;-73
2023/11/27 00:24:00;;;;;;;9.70;3.20;;;4.70;99.90;;;;;;4937246;29;20031;-71
2023/11/27 00:26:25;;;;;;;7.00;2.20;;;4.80;99.90;;;;;;4937396;29;20028;-72
2023/11/27 00:28:52;;;;;;;9.67;3.37;;;4.80;99.90;;;;;;4935913;29;20038;-72
2023/11/27 00:31:17;;;;;;;12.40;3.87;;;4.80;99.90;;;;;;4937202;29;20038;-73
2023/11/27 00:33:47;;;;;;;7.40;3.00;;;4.80;99.90;;;;;;4919878;29;20031;-73
2023/11/27 00:36:16;;;;;;;5.67;2.90;;;4.80;99.90;;;;;;4936771;29;20084;-72
2023/11/27 00:38:41;;;;;;;7.30;2.60;;;4.80;99.90;;;;;;4920304;29;20039;-73
2023/11/27 00:41:07;;;;;;;8.73;3.00;;;4.80;99.90;;;;;;4919802;29;20496;-72
2023/11/27 00:43:34;;;;;;;11.53;2.80;;;4.80;99.90;;;;;;4936900;29;20470;-72
2023/11/27 00:46:00;;;;;;;5.00;2.47;;;4.80;99.90;;;;;;4919687;29;20027;-72
2023/11/27 00:48:25;;;;;;;6.43;2.63;;;4.80;99.90;;;;;;4919659;29;20031;-72
2023/11/27 00:50:52;;;;;;;7.23;2.67;;;4.90;99.90;;;;;;4919472;29;20031;-72
2023/11/27 00:53:18;;;;;;;5.07;2.70;;;4.90;99.90;;;;;;4919741;29;20371;-72
2023/11/27 00:55:44;;;;;;;8.00;2.70;;;4.90;99.90;;;;;;4919928;29;20038;-73
2023/11/27 00:58:09;;;;;;;9.27;2.70;;;4.90;99.90;;;;;;4936350;29;20035;-73
2023/11/27 01:00:35;;;;;;;6.87;2.20;;;4.90;99.90;;;;;;4919615;29;20031;-73
2023/11/27 01:03:00;;;;;;;5.10;3.00;;;4.90;99.90;;;;;;4935799;29;20354;-73
2023/11/27 01:05:27;;;;;;;6.70;2.63;;;4.90;99.90;;;;;;4936676;29;20019;-72
2023/11/27 01:07:52;;;;;;;9.23;2.53;;;4.90;99.90;;;;;;4936318;29;20024;-73
2023/11/27 01:10:18;;;;;;;7.40;2.50;;;4.90;99.90;;;;;;4936747;29;20035;-73
2023/11/27 01:12:44;;;;;;;5.93;2.43;;;4.80;99.90;;;;;;4919593;29;20106;-73
2023/11/27 01:15:13;;;;;;;8.60;2.63;;;4.80;99.90;;;;;;4918988;29;20683;-72
2023/11/27 01:17:40;;;;;;;7.47;2.80;;;4.90;99.90;;;;;;4917512;29;20024;-73
2023/11/27 01:20:07;;;;;;;5.83;2.93;;;4.80;99.90;;;;;;4917575;29;20058;-72
2023/11/27 01:22:34;;;;;;;10.10;2.77;;;4.90;99.90;;;;;;4934369;29;20540;-72
2023/11/27 01:25:00;;;;;;;8.63;3.10;;;4.80;99.90;;;;;;4917550;29;20028;-73
2023/11/27 01:27:25;;;;;;;4.77;2.37;;;4.80;99.90;;;;;;4934805;29;20035;-73
2023/11/27 01:29:51;;;;;;;4.97;2.83;;;4.80;99.90;;;;;;4934805;29;20028;-78
2023/11/27 01:32:16;;;;;;;5.97;2.87;;;4.80;99.90;;;;;;4926128;29;20416;-73
2023/11/27 01:34:42;;;;;;;4.63;2.20;;;4.90;99.90;;;;;;4926049;29;20107;-73
2023/11/27 01:37:08;;;;;;;8.47;2.40;;;4.90;99.90;;;;;;4916057;29;20192;-74
2023/11/27 01:39:34;;;;;;;8.03;2.20;;;4.90;99.90;;;;;;4917615;29;20036;-73
2023/11/27 01:42:00;;;;;;;5.03;2.50;;;4.90;99.90;;;;;;4917087;29;20469;-72
2023/11/27 01:44:25;;;;;;;4.57;2.50;;;5.00;99.90;;;;;;4917747;29;20035;-73
2023/11/27 01:46:51;;;;;;;7.47;2.60;;;4.90;99.90;;;;;;4917558;29;20028;-78
2023/11/27 01:49:18;;;;;;;4.33;2.13;;;5.00;99.90;;;;;;4924828;29;20039;-72
2023/11/27 01:51:44;;;;;;;8.83;2.47;;;5.00;99.90;;;;;;4915975;29;20039;-73
2023/11/27 01:54:10;;;;;;;7.67;2.40;;;5.00;99.90;;;;;;4916596;29;20420;-72
2023/11/27 01:56:37;;;;;;;5.27;2.20;;;5.00;99.90;;;;;;4926373;29;20028;-72
2023/11/27 01:59:03;;;;;;;7.43;2.33;;;5.00;99.90;;;;;;4933227;29;20040;-75
2023/11/27 02:01:31;;;;;;;9.23;2.70;;;5.00;99.90;;;;;;4934309;29;20032;-73
2023/11/27 02:03:56;;;;;;;5.30;2.80;;;5.10;99.90;;;;;;4924144;29;20023;-72
2023/11/27 02:06:22;;;;;;;5.23;2.33;;;5.00;99.90;;;;;;4934775;29;20663;-72
2023/11/27 02:08:48;;;;;;;6.33;2.33;;;5.00;99.90;;;;;;4933893;29;20035;-74
2023/11/27 02:11:18;;;;;;;7.30;1.97;;;5.00;99.90;;;;;;4925018;29;20028;-73
2023/11/27 02:13:45;;;;;;;5.93;2.87;;;5.00;99.90;;;;;;4934104;29;20020;-74
2023/11/27 02:16:11;;;;;;;8.43;2.20;;;5.10;99.90;;;;;;4933849;29;20027;-73
2023/11/27 02:18:36;;;;;;;5.03;1.80;;;5.00;99.90;;;;;;4917167;29;20028;-74
2023/11/27 02:21:06;;;;;;;6.20;2.10;;;5.10;99.90;;;;;;4933862;29;20292;-73
2023/11/27 02:23:32;;;;;;;7.70;2.50;;;5.10;99.90;;;;;;4916437;29;20056;-72
2023/11/27 02:25:57;;;;;;;9.33;2.03;;;5.10;99.90;;;;;;4933185;29;20087;-77
2023/11/27 02:28:23;;;;;;;6.00;2.10;;;5.10;99.90;;;;;;4916774;29;20027;-75
2023/11/27 02:30:49;;;;;;;6.27;2.17;;;5.10;99.90;;;;;;4916807;29;20027;-73
2023/11/27 02:33:16;;;;;;;6.27;2.17;;;5.10;99.90;;;;;;4935219;29;20473;-73
2023/11/27 02:35:41;;;;;;;6.87;2.60;;;5.10;99.90;;;;;;4918821;29;20533;-74
2023/11/27 02:38:07;;;;;;;6.87;2.17;;;5.10;99.90;;;;;;4920703;29;20118;-74
2023/11/27 02:40:33;;;;;;;5.07;2.27;;;5.00;99.90;;;;;;4935014;29;20036;-73
2023/11/27 02:42:59;;;;;;;4.37;2.20;;;5.00;99.90;;;;;;4927844;29;20409;-73
2023/11/27 02:45:25;;;;;;;5.70;2.17;;;5.00;99.90;;;;;;4935295;29;20023;-73
2023/11/27 02:47:51;;;;;;;5.07;2.27;;;5.00;99.90;;;;;;4935294;29;20031;-74
2023/11/27 02:50:18;;;;;;;6.07;2.03;;;5.00;99.90;;;;;;4924462;29;20288;-73
2023/11/27 02:52:45;;;;;;;6.17;2.30;;;5.00;99.90;;;;;;4935096;29;20036;-73
2023/11/27 02:55:11;;;;;;;4.60;2.00;;;5.00;99.90;;;;;;4918106;29;20028;-73
2023/11/27 02:57:37;;;;;;;7.03;2.23;;;5.00;99.90;;;;;;4935650;29;20047;-73
2023/11/27 03:00:05;;;;;;;6.13;2.00;;;4.90;99.90;;;;;;4917966;29;20465;-73
2023/11/27 03:02:32;;;;;;;5.07;1.67;;;4.90;99.90;;;;;;4918566;29;20030;-73
2023/11/27 03:04:58;;;;;;;8.47;2.20;;;4.90;99.90;;;;;;4917935;29;20042;-74
2023/11/27 03:07:23;;;;;;;2.97;1.83;;;4.90;99.90;;;;;;4918379;29;20028;-73
2023/11/27 03:09:49;;;;;;;6.83;1.80;;;4.80;99.90;;;;;;4918509;29;20036;-73
2023/11/27 03:12:15;;;;;;;5.43;1.90;;;4.80;99.90;;;;;;4935054;29;20284;-75
2023/11/27 03:14:40;;;;;;;8.90;1.90;;;4.80;99.90;;;;;;4935400;29;20039;-73
2023/11/27 03:17:06;;;;;;;4.07;1.80;;;4.80;99.90;;;;;;4917884;29;20031;-74
2023/11/27 03:19:35;;;;;;;6.50;1.87;;;4.70;99.90;;;;;;4935218;29;20412;-73
2023/11/27 03:22:01;;;;;;;4.80;1.70;;;4.70;99.90;;;;;;4934964;29;20047;-74
2023/11/27 03:24:26;;;;;;;6.73;1.77;;;4.70;99.90;;;;;;4935267;29;20040;-74
2023/11/27 03:26:52;;;;;;;5.67;1.90;;;4.70;99.90;;;;;;4935082;29;20032;-73
2023/11/27 03:29:17;;;;;;;3.67;1.70;;;4.70;99.90;;;;;;4917592;29;20034;-73
2023/11/27 03:31:43;;;;;;;4.33;1.90;;;4.70;99.90;;;;;;4918291;29;20589;-73
2023/11/27 03:34:08;;;;;;;5.10;1.53;;;4.70;99.90;;;;;;4917857;29;20425;-73
2023/11/27 03:36:34;;;;;;;3.70;1.80;;;4.70;99.90;;;;;;4918253;29;20027;-73
2023/11/27 03:38:59;;;;;;;4.80;1.87;;;4.70;99.90;;;;;;4934716;29;20040;-74
2023/11/27 03:41:25;;;;;;;6.10;1.87;;;4.70;99.90;;;;;;4934880;29;20039;-73
2023/11/27 03:43:51;;;;;;;4.13;2.07;;;4.70;99.90;;;;;;4935189;29;20401;-73
2023/11/27 03:46:16;;;;;;;6.17;1.90;;;4.70;99.90;;;;;;4917651;29;20223;-73
2023/11/27 03:48:42;;;;;;;3.80;1.60;;;4.70;99.90;;;;;;4918152;29;20024;-73
2023/11/27 03:51:08;;;;;;;3.83;1.67;;;4.70;99.90;;;;;;4934532;29;20027;-73
2023/11/27 03:53:35;;;;;;;4.43;1.90;;;4.70;99.90;;;;;;4918017;29;20024;-73
2023/11/27 03:56:00;;;;;;;6.60;1.93;;;4.70;99.90;;;;;;4917556;29;20032;-74
2023/11/27 03:58:26;;;;;;;8.03;2.50;;;4.70;99.90;;;;;;4918105;29;20058;-73
2023/11/27 04:00:52;;;;;;;5.53;2.10;;;4.70;99.90;;;;;;4917914;29;20116;-73
2023/11/27 04:03:19;;;;;;;6.30;2.60;;;4.70;99.90;;;;;;4935021;29;20206;-73
2023/11/27 04:05:45;;;;;;;5.73;2.40;;;4.70;99.90;;;;;;4938487;29;20034;-73
2023/11/27 04:08:10;;;;;;;7.07;2.50;;;4.80;99.90;;;;;;4937994;29;20028;-74
2023/11/27 04:10:36;;;;;;;6.03;2.80;;;4.80;99.90;;;;;;4938604;29;20384;-73
2023/11/27 04:13:01;;;;;;;7.60;2.67;;;4.80;99.90;;;;;;4937814;29;20111;-74
2023/11/27 04:15:29;;;;;;;7.13;2.43;;;4.70;99.90;;;;;;4921137;29;20027;-73
2023/11/27 04:17:55;;;;;;;6.23;2.33;;;4.70;99.90;;;;;;4921110;29;20055;-73
2023/11/27 04:20:21;;;;;;;9.73;2.33;;;4.70;99.90;;;;;;4920464;29;20477;-73
2023/11/27 04:22:46;;;;;;;8.17;2.40;;;4.70;99.90;;;;;;4942847;29;20062;-74
2023/11/27 04:25:12;;;;;;;6.87;2.43;;;4.70;99.90;;;;;;4955255;29;20031;-73
2023/11/27 04:27:38;;;;;;;4.53;2.20;;;4.80;99.90;;;;;;4956925;28;20513;-73
2023/11/27 04:30:08;;;;;;;5.50;2.57;;;4.70;99.90;;;;;;4955514;29;20059;-74
2023/11/27 04:32:33;;;;;;;6.50;2.37;;;4.80;99.90;;;;;;4955894;29;20027;-73
2023/11/27 04:35:00;;;;;;;6.33;2.73;;;4.80;99.90;;;;;;4957146;29;20031;-73
2023/11/27 04:37:25;;;;;;;4.73;2.60;;;4.70;99.90;;;;;;4955802;29;20059;-73
2023/11/27 04:39:51;;;;;;;5.67;2.43;;;4.70;99.90;;;;;;4956786;29;20047;-73
2023/11/27 04:42:20;;;;;;;7.53;2.60;;;4.70;99.90;;;;;;4971200;28;20139;-74
2023/11/27 04:44:46;;;;;;;8.93;2.67;;;4.70;99.90;;;;;;4956694;28;20184;-73
2023/11/27 04:47:12;;;;;;;5.87;2.77;;;4.70;99.90;;;;;;4956180;28;20106;-73
2023/11/27 04:49:38;;;;;;;8.60;3.07;;;4.70;99.90;;;;;;4956796;29;20039;-73
2023/11/27 04:52:04;;;;;;;6.33;3.00;;;4.70;99.90;;;;;;4956340;28;20383;-74
2023/11/27 04:54:30;;;;;;;5.77;3.10;;;4.70;99.90;;;;;;4955455;29;20388;-73
2023/11/27 04:56:56;;;;;;;8.37;2.93;;;4.60;99.90;;;;;;4955428;29;20035;-74
2023/11/27 04:59:22;;;;;;;5.67;2.63;;;4.60;99.90;;;;;;4954790;29;20440;-74
2023/11/27 05:01:47;;;;;;;7.73;2.77;;;4.60;99.90;;;;;;4971465;28;20039;-73
2023/11/27 05:04:17;;;;;;;4.20;2.57;;;4.60;99.90;;;;;;4970775;28;20495;-73
2023/11/27 05:06:44;;;;;;;5.60;3.00;;;4.50;99.90;;;;;;4955058;29;20376;-73
2023/11/27 05:09:10;;;;;;;5.00;2.67;;;4.60;99.90;;;;;;4955177;29;20035;-76
2023/11/27 05:11:36;;;;;;;7.53;3.20;;;4.60;99.90;;;;;;4955525;29;20034;-73
2023/11/27 05:14:01;;;;;;;4.47;2.60;;;4.50;99.90;;;;;;4970784;28;20032;-73
2023/11/27 05:16:27;;;;;;;7.90;3.20;;;4.50;99.90;;;;;;4954367;29;20069;-73
2023/11/27 05:18:53;;;;;;;7.87;3.10;;;4.50;99.90;;;;;;4955026;29;20476;-73
2023/11/27 05:21:18;;;;;;;4.67;2.57;;;4.50;99.90;;;;;;4969202;28;20086;-74
2023/11/27 05:23:44;;;;;;;5.07;2.70;;;4.50;99.90;;;;;;4937080;29;20087;-73
2023/11/27 05:26:10;;;;;;;8.60;3.20;;;4.50;99.90;;;;;;4919507;29;20032;-73
2023/11/27 05:28:37;;;;;;;6.83;3.23;;;4.60;99.90;;;;;;4919761;29;20054;-73
2023/11/27 05:31:05;;;;;;;6.60;2.90;;;4.50;99.90;;;;;;4922190;29;20087;-73
2023/11/27 05:33:31;;;;;;;5.90;2.77;;;4.50;99.90;;;;;;4935823;29;20469;-74
2023/11/27 05:35:57;;;;;;;7.00;2.70;;;4.50;99.90;;;;;;4936307;29;20023;-73
2023/11/27 05:38:23;;;;;;;8.13;3.30;;;4.50;99.90;;;;;;4918442;29;20488;-74
2023/11/27 05:40:50;;;;;;;4.90;2.83;;;4.50;99.90;;;;;;4919337;29;20035;-73
2023/11/27 05:43:17;;;;;;;8.13;3.53;;;4.50;99.90;;;;;;4918926;29;20028;-74
2023/11/27 05:45:43;;;;;;;8.13;2.70;;;4.50;99.90;;;;;;4919627;29;20054;-73
2023/11/27 05:48:09;;;;;;;6.23;2.80;;;4.50;99.90;;;;;;4919025;29;20032;-74
2023/11/27 05:50:41;;;;;;;9.33;3.10;;;4.50;99.90;;;;;;4919066;29;20036;-74
2023/11/27 05:53:09;;;;;;;5.93;3.10;;;4.50;99.90;;;;;;4919063;29;20397;-74
2023/11/27 05:55:36;;;;;;;4.93;2.50;;;4.60;99.90;;;;;;4936020;29;20032;-73
2023/11/27 05:58:02;;;;;;;5.33;2.83;;;4.50;99.90;;;;;;4919180;29;20027;-74
2023/11/27 06:00:27;;;;;;;5.23;2.90;;;4.60;99.90;;;;;;4918512;29;20169;-73
2023/11/27 06:02:53;;;;;;;7.23;2.57;;;4.60;99.90;;;;;;4919188;29;20028;-73
2023/11/27 06:05:19;;;;;;;5.20;3.10;;;4.50;99.90;;;;;;4918444;29;20023;-73
2023/11/27 06:07:45;;;;;;;6.87;3.03;;;4.60;99.90;;;;;;4936231;29;20032;-73
2023/11/27 06:10:12;;;;;;;5.87;2.70;;;4.60;99.90;;;;;;4918459;29;20032;-74
2023/11/27 06:12:37;;;;;;;5.33;2.57;;;4.50;99.90;;;;;;4935558;29;20027;-73
2023/11/27 06:15:03;;;;;;;5.10;2.77;;;4.60;99.90;;;;;;4918958;29;20038;-73
2023/11/27 06:17:29;;;;;;;5.00;3.00;;;4.60;99.90;;;;;;4918294;29;20323;-73
2023/11/27 06:19:54;;;;;;;6.17;2.63;;;4.60;99.90;;;;;;4918826;29;20046;-73
2023/11/27 06:22:20;;;;;;;7.70;3.00;;;4.60;99.90;;;;;;4933227;29;20404;-73
2023/11/27 06:24:47;;;;;;;5.70;2.80;;;4.60;99.90;;;;;;4953919;29;20039;-73
2023/11/27 06:27:13;;;;;;;5.87;3.00;;;4.60;99.90;;;;;;4952662;28;20200;-74
2023/11/27 06:29:38;;;;;;;5.17;2.67;;;4.60;99.90;;;;;;4953763;29;20125;-73
2023/11/27 06:32:04;;;;;;;5.70;3.03;;;4.60;99.90;;;;;;4955230;29;20039;-73
2023/11/27 06:34:30;;;;;;;5.00;3.07;;;4.60;99.90;;;;;;4953320;29;20452;-74
2023/11/27 06:36:55;;;;;;;6.83;3.23;;;4.60;99.90;;;;;;4954670;29;20063;-73
2023/11/27 06:39:21;;;;;;;6.50;2.60;;;4.60;99.90;;;;;;4953067;29;20073;-74
2023/11/27 06:41:47;;;;;;;6.70;3.20;;;4.60;99.90;;;;;;4953734;29;20038;-73
2023/11/27 06:44:17;;;;;;;6.07;2.70;;;4.60;99.90;;;;;;4953129;29;20027;-74
2023/11/27 06:46:43;;;;;;;5.77;2.60;;;4.60;99.90;;;;;;4955021;28;20027;-73
2023/11/27 06:49:09;;;;;;;8.53;3.20;;;4.70;99.90;;;;;;4952996;29;20472;-74
2023/11/27 06:51:35;;;;;;;9.43;3.80;;;4.70;99.90;;;;;;4953465;29;20039;-73
2023/11/27 06:54:02;;;;;;;7.33;3.47;;;4.70;99.90;;;;;;4953536;29;20460;-73
2023/11/27 06:56:33;;;;;;;7.30;3.13;;;4.70;99.90;;;;;;4954237;28;20106;-73
2023/11/27 06:59:02;;;;;;;6.67;3.37;;;4.70;99.90;;;;;;4954661;28;20063;-74
2023/11/27 07:01:29;;;;;;;10.07;3.20;;;4.60;99.90;;;;;;4952989;29;20488;-74
2023/11/27 07:03:58;;;;;;;5.43;2.90;;;4.60;99.90;;;;;;4953422;29;20027;-74
2023/11/27 07:06:25;;;;;;;6.80;2.90;;;4.70;99.90;;;;;;4954261;28;20028;-74
2023/11/27 07:08:51;;;;;;;9.77;3.00;;;4.70;99.90;;;;;;4953410;29;20034;-74
2023/11/27 07:11:17;;;;;;;6.73;2.47;;;4.70;99.90;;;;;;4954204;29;20102;-74
2023/11/27 07:13:43;;;;;;;7.73;3.00;;;4.70;99.90;;;;;;4954661;28;20050;-74
2023/11/27 07:16:09;;;;;;;7.43;2.37;;;4.70;99.90;;;;;;4953347;29;20019;-74
2023/11/27 07:18:35;;;;;;;5.60;2.47;;;4.70;99.90;;;;;;4953365;29;20127;-74
2023/11/27 07:21:00;;;;;;;7.37;2.70;;;4.70;99.90;;;;;;4954482;29;20082;-73
2023/11/27 07:23:27;;;;;;;3.60;2.17;;;4.70;99.90;;;;;;4935753;29;20058;-74
2023/11/27 07:25:53;;;;;;;7.63;2.53;;;4.70;99.90;;;;;;4918260;29;20059;-74
2023/11/27 07:28:19;;;;;;;5.60;2.57;;;4.70;99.90;;;;;;4917777;29;20059;-74
2023/11/27 07:30:45;;;;;;;5.30;2.50;;;4.70;99.90;;;;;;4935066;29;20102;-73
2023/11/27 07:33:11;;;;;;;5.27;2.50;;;4.70;99.90;;;;;;4917795;29;20035;-76
2023/11/27 07:35:37;;;;;;;5.53;2.50;;;4.70;99.90;;;;;;4935271;29;20187;-73
2023/11/27 07:38:03;;;;;;;6.73;2.50;;;4.70;99.90;;;;;;4919763;29;20122;-73
2023/11/27 07:40:29;;;;;;;6.90;2.47;;;4.70;99.90;;;;;;4921301;29;20126;-73
2023/11/27 07:42:54;;;;;;;5.00;2.20;;;4.80;99.90;;;;;;4938587;29;20079;-73
2023/11/27 07:45:20;;;;;;;7.37;2.57;;;4.80;99.90;;;;;;4938271;29;20028;-74
2023/11/27 07:47:46;;;;;;;4.73;2.30;;;4.80;99.90;;;;;;4921673;29;20032;-73
2023/11/27 07:50:12;;;;;;;7.03;2.47;;;4.80;99.90;;;;;;4921219;29;20035;-77
2023/11/27 07:52:39;;;;;;;6.20;2.10;;;4.80;99.90;;;;;;4921487;29;20369;-73
2023/11/27 07:55:05;;;;;;;4.10;2.10;;;4.80;99.90;;;;;;4921640;29;20511;-73
2023/11/27 07:57:32;;;;;;;4.00;2.10;;;4.90;99.90;;;;;;4921137;29;20393;-73
2023/11/27 08:00:02;;;;;;;3.63;1.90;;;4.90;99.90;;;;;;4938387;29;20046;-73
2023/11/27 08:02:27;;;;;;;6.97;2.77;;;4.90;99.90;;;;;;4938077;29;20035;-73
2023/11/27 08:04:53;;;;;;;4.20;1.80;;;4.90;99.90;;;;;;4938497;29;20027;-73
2023/11/27 08:07:19;;;;;;;6.43;2.37;;;4.90;99.90;;;;;;4920881;29;20134;-74
2023/11/27 08:09:48;;;;;;;5.47;2.67;;;4.90;99.90;;;;;;4921396;29;20024;-73
2023/11/27 08:12:16;;;;;;;6.23;2.37;;;4.90;99.90;;;;;;4937618;29;20474;-73
2023/11/27 08:14:42;;;;;;;8.60;2.50;;;5.00;99.90;;;;;;4921353;29;20032;-73
2023/11/27 08:17:07;;;;;;;6.33;2.20;;;5.00;99.90;;;;;;4920896;29;20031;-73
2023/11/27 08:19:33;;;;;;;3.50;2.13;;;5.00;99.90;;;;;;4920596;29;20176;-74
2023/11/27 08:22:05;;;;;;;4.63;2.30;;;5.00;99.90;;;;;;4930365;29;20477;-73
2023/11/27 08:24:34;;;;;;;;;;;5.10;99.90;;;;;;4957259;28;20054;-74
2023/11/27 08:27:01;;;;;;;5.53;1.90;;;5.10;99.90;;;;;;4956025;29;19949;-73
2023/11/27 08:29:33;;;;;;;3.53;2.13;;;5.10;99.90;;;;;;4955530;29;20031;-73
2023/11/27 08:32:00;;;;;;;6.32;2.30;;;5.20;99.90;;;;;;4956978;28;20032;-73
2023/11/27 08:34:28;;;;;;;6.10;2.00;;;5.20;99.90;;;;;;4955420;29;20078;-73
2023/11/27 08:36:59;;;;;;;6.10;2.27;;;5.20;99.90;;;;;;4955875;29;20038;-73
2023/11/27 08:39:25;;;;;;;7.70;2.40;;;5.20;99.90;;;;;;4955504;29;20090;-73
2023/11/27 08:41:51;;;;;;;7.03;2.17;;;5.20;99.90;;;;;;4955635;29;20388;-73
2023/11/27 08:44:17;;;;;;;5.17;2.20;;;5.30;99.90;;;;;;4956506;28;20023;-74
2023/11/27 08:46:43;;;;;;;5.77;2.23;;;5.30;99.90;;;;;;4955757;29;20031;-73
2023/11/27 08:49:10;;;;;;;3.40;1.83;;;5.20;99.90;;;;;;4954773;28;20090;-73
2023/11/27 08:51:36;;;;;;;4.37;2.10;;;5.30;99.90;;;;;;4954940;29;20046;-73
2023/11/27 08:54:02;;;;;;;3.90;1.93;;;5.30;99.90;;;;;;4956796;28;20042;-73
2023/11/27 08:56:33;;;;;;;3.80;1.97;;;5.40;99.90;;;;;;4954996;29;20067;-74
2023/11/27 08:59:00;;;;;;;3.90;1.80;;;5.30;99.90;;;;;;4955633;29;20023;-74
2023/11/27 09:01:26;;;;;;;5.07;1.90;;;5.30;99.90;;;;;;4954841;29;20038;-74
2023/11/27 09:03:52;;;;;;;5.03;1.90;;;5.40;99.90;;;;;;4956586;29;20385;-73
2023/11/27 09:06:19;;;;;;;5.20;1.90;;;5.40;99.90;;;;;;4954592;29;20031;-74
2023/11/27 09:08:45;;;;;;;5.33;1.87;;;5.40;99.90;;;;;;4955189;29;20028;-73
2023/11/27 09:11:11;;;;;;;6.20;1.60;;;5.40;99.90;;;;;;4955278;29;20050;-73
2023/11/27 09:13:37;;;;;;;4.67;1.67;;;5.40;99.90;;;;;;4955859;28;20434;-74
2023/11/27 09:16:03;;;;;;;4.80;1.90;;;5.40;99.90;;;;;;4955115;29;20031;-73
2023/11/27 09:18:29;;;;;;;5.67;2.10;;;5.40;99.90;;;;;;4954672;29;20035;-73
2023/11/27 09:20:54;;;;;;;6.47;2.00;;;5.40;99.90;;;;;;4954862;29;20039;-73
2023/11/27 09:23:20;;;;;;;4.37;1.77;;;5.50;99.90;;;;;;4954109;29;20066;-74
2023/11/27 09:25:46;;;;;;;5.93;1.87;;;5.50;99.90;;;;;;4954877;29;20027;-73
2023/11/27 09:28:12;;;;;;;3.17;1.40;;;5.50;99.90;;;;;;4956007;29;20066;-73
2023/11/27 09:30:37;;;;;;;3.27;1.50;;;5.50;99.90;;;;;;4954341;29;20442;-74
2023/11/27 09:33:04;;;;;;;6.23;1.90;;;5.60;99.90;;;;;;4954781;29;20110;-74
2023/11/27 09:35:30;;;;;;;4.13;1.60;;;5.60;99.90;;;;;;4955667;28;20047;-74
2023/11/27 09:37:55;;;;;;;3.43;1.60;;;5.60;99.90;;;;;;4956163;29;20063;-74
2023/11/27 09:40:21;;;;;;;2.83;1.93;;;5.60;99.90;;;;;;4955097;29;20062;-75
2023/11/27 09:42:47;;;;;;;3.63;1.40;;;5.60;99.90;;;;;;4954284;29;20533;-74
2023/11/27 09:45:13;;;;;;;3.47;1.40;;;5.60;99.90;;;;;;4954573;29;20131;-74
2023/11/27 09:47:43;;;;;;;3.70;1.53;;;5.70;99.90;;;;;;4954082;29;20027;-74
2023/11/27 09:50:11;;;;;;;4.17;1.50;;;5.70;99.90;;;;;;4954363;29;20465;-74
2023/11/27 09:52:52;;;;;;;4.57;1.77;;;5.80;99.90;;;;;;4954032;29;20036;-74
2023/11/27 09:55:22;;;;;;;4.07;1.70;;;5.80;99.90;;;;;;4954379;29;20543;-74
2023/11/27 09:57:49;;;;;;;5.93;1.50;;;5.80;99.90;;;;;;4954356;29;20043;-74
2023/11/27 10:00:18;;;;;;;4.53;1.73;;;5.90;99.90;;;;;;4955501;28;20063;-74
2023/11/27 10:02:51;;;;;;;1.60;1.20;;;5.90;99.90;;;;;;4955275;28;20063;-74
2023/11/27 10:05:18;;;;;;;3.53;1.70;;;5.90;99.90;;;;;;4954272;29;20123;-74
2023/11/27 10:07:46;;;;;;;3.03;1.30;;;5.90;99.90;;;;;;4955380;28;20111;-74
2023/11/27 10:10:15;;;;;;;1.70;1.10;;;5.90;99.90;;;;;;4954091;29;20035;-75
2023/11/27 10:12:44;;;;;;;4.00;1.13;;;5.90;99.90;;;;;;4953742;29;20035;-74
2023/11/27 10:15:11;;;;;;;3.97;1.60;;;5.90;99.90;;;;;;4954057;29;20039;-74
2023/11/27 10:17:41;;;;;;;3.90;1.23;;;5.90;99.90;;;;;;4954767;28;20030;-74
2023/11/27 10:20:12;;;;;;;3.33;1.33;;;6.00;99.90;;;;;;4954003;29;20495;-75
2023/11/27 10:22:42;;;;;;;3.67;1.10;;;6.00;99.90;;;;;;4953175;29;20109;-74
2023/11/27 10:25:08;;;;;;;5.73;1.50;;;6.00;99.90;;;;;;4955114;28;20386;-74
2023/11/27 10:27:34;;;;;;;2.53;1.50;;;6.00;99.90;;;;;;4953318;29;20442;-74
2023/11/27 10:30:03;;;;;;;2.03;1.50;;;6.10;99.90;;;;;;4949766;28;20076;-79
2023/11/27 10:32:29;;;;;;;3.63;1.20;;;6.10;99.90;;;;;;4951733;29;20034;-74
2023/11/27 10:34:57;;;;;;;2.23;1.20;;;6.10;99.90;;;;;;4952900;29;20039;-75
2023/11/27 10:37:23;;;;;;;1.73;0.87;;;6.10;99.90;;;;;;4952192;29;20031;-75
2023/11/27 10:39:52;;;;;;;3.97;1.37;;;6.10;99.90;;;;;;4952731;29;20062;-76
2023/11/27 10:42:18;;;;;;;2.70;1.33;;;6.20;99.90;;;;;;4953168;29;20031;-75
2023/11/27 10:44:50;;;;;;;4.90;1.30;;;6.20;99.90;;;;;;4952783;29;20034;-74
2023/11/27 10:47:17;;;;;;;1.90;1.20;;;6.20;99.90;;;;;;4952764;29;20031;-75
2023/11/27 10:49:43;;;;;;;2.63;1.27;;;6.20;99.90;;;;;;4952644;29;20155;-74
2023/11/27 10:52:09;;;;;;;1.77;1.00;;;6.30;99.90;;;;;;4953081;29;20031;-73
2023/11/27 10:54:38;;;;;;;3.13;1.13;;;6.30;99.90;;;;;;4952611;29;20028;-74
2023/11/27 10:57:06;;;;;;;2.77;1.07;;;6.30;99.90;;;;;;4954472;28;20015;-74
2023/11/27 10:59:33;;;;;;;2.40;1.33;;;6.30;99.90;;;;;;4953534;28;20035;-74
2023/11/27 11:02:02;;;;;;;1.80;1.10;;;6.40;99.90;;;;;;4953148;29;20381;-74
2023/11/27 11:04:46;;;;;;;2.77;1.50;;;6.40;99.90;;;;;;4953770;28;20106;-74
2023/11/27 11:07:22;;;;;;;3.73;1.20;;;6.40;99.90;;;;;;4953231;29;20041;-74
2023/11/27 11:09:55;;;;;;;4.60;1.90;;;6.40;99.90;;;;;;4952960;29;20122;-74
2023/11/27 11:12:23;;;;;;;3.50;1.07;;;6.30;99.90;;;;;;4953106;28;20030;-80
2023/11/27 11:14:52;;;;;;;2.77;1.03;;;6.30;99.90;;;;;;4956845;29;20030;-74
2023/11/27 11:17:56;;;;;;;2.43;1.23;;;6.40;99.90;;;;;;4956830;29;20035;-74
2023/11/27 11:20:57;;;;;;;2.80;0.93;;;6.40;99.90;;;;;;4957515;28;20114;-74
2023/11/27 11:23:27;;;;;;;4.00;1.23;;;6.40;99.90;;;;;;4902479;29;20048;-75
2023/11/27 11:26:21;;;;;;;3.07;1.17;;;6.40;99.90;;;;;;4954661;29;20051;-74
2023/11/27 11:28:51;;;;;;;2.97;1.20;;;6.40;99.90;;;;;;4956751;29;20023;-74
2023/11/27 11:31:23;;;;;;;2.27;1.03;;;6.40;99.90;;;;;;4957933;28;20177;-75
2023/11/27 11:33:49;;;;;;;1.53;1.07;;;6.30;99.90;;;;;;4956363;29;20031;-75
2023/11/27 11:36:32;;;;;;;2.57;0.90;;;6.40;99.90;;;;;;4957790;28;20118;-74
2023/11/27 11:38:58;;;;;;;2.03;0.80;;;6.40;99.90;;;;;;4956245;29;20457;-74
2023/11/27 11:41:31;;;;;;;2.77;0.80;;;6.40;99.90;;;;;;4956662;28;20055;-75
2023/11/27 11:43:57;;;;;;;1.73;0.70;;;6.40;99.90;;;;;;4956584;29;20027;-74
2023/11/27 11:46:26;;;;;;;3.47;0.90;;;6.40;99.90;;;;;;4955791;29;20122;-74
2023/11/27 11:48:57;;;;;;;1.50;0.80;;;6.30;99.90;;;;;;4956397;29;20349;-74
2023/11/27 11:51:25;;;;;;;1.57;0.50;;;6.40;99.90;;;;;;4955538;29;20070;-75
2023/11/27 11:53:51;;;;;;;1.80;0.80;;;6.40;99.90;;;;;;4956278;29;20535;-74
2023/11/27 11:56:20;;;;;;;1.33;0.70;;;6.30;99.90;;;;;;4957431;28;20023;-76
2023/11/27 11:58:49;;;;;;;5.33;0.90;;;6.30;99.90;;;;;;4955336;29;20112;-73
2023/11/27 12:01:15;;;;;;;1.13;0.70;;;6.30;99.90;;;;;;4955879;29;20035;-75
2023/11/27 12:03:45;;;;;;;2.27;0.60;;;6.20;99.90;;;;;;4956868;28;20653;-74
2023/11/27 12:06:14;;;;;;;1.50;0.80;;;6.10;99.90;;;;;;4957287;28;20026;-74
2023/11/27 12:08:44;;;;;;;3.27;0.97;;;6.10;99.90;;;;;;4955454;29;20024;-73
2023/11/27 12:11:12;;;;;;;1.80;0.90;;;6.10;99.90;;;;;;4956013;29;20027;-73
2023/11/27 12:13:43;;;;;;;2.20;0.80;;;6.00;99.90;;;;;;4956487;28;20524;-74
2023/11/27 12:16:12;;;;;;;1.47;0.83;;;6.00;99.90;;;;;;4955927;29;20027;-73
2023/11/27 12:18:46;;;;;;;1.23;0.80;;;6.00;99.90;;;;;;4953827;29;20035;-73
2023/11/27 12:21:15;;;;;;;2.23;0.80;;;5.90;99.90;;;;;;4955015;29;20039;-72
2023/11/27 12:23:40;;;;;;;2.80;0.90;;;5.90;99.90;;;;;;4919367;29;20032;-73
2023/11/27 12:26:08;;;;;;;5.70;0.90;;;5.80;99.90;;;;;;4920006;29;20083;-72
2023/11/27 12:28:34;;;;;;;1.73;0.80;;;5.80;99.90;;;;;;4919853;29;20355;-74
2023/11/27 12:31:01;;;;;;;1.50;0.60;;;5.80;99.90;;;;;;4937427;29;20031;-73
2023/11/27 12:33:29;;;;;;;1.23;0.80;;;5.70;99.90;;;;;;4919863;29;20028;-73
2023/11/27 12:35:56;;;;;;;1.67;0.80;;;5.80;99.90;;;;;;4937431;29;20027;-73
2023/11/27 12:38:24;;;;;;;2.37;1.10;;;5.70;99.90;;;;;;4919959;29;20049;-79
2023/11/27 12:40:51;;;;;;;1.97;0.90;;;5.70;99.90;;;;;;4937209;29;20082;-73
2023/11/27 12:43:18;;;;;;;2.10;0.80;;;5.70;99.90;;;;;;4937342;29;20055;-74
2023/11/27 12:45:44;;;;;;;2.07;1.00;;;5.70;99.90;;;;;;4919574;29;20035;-73
2023/11/27 12:48:10;;;;;;;2.83;1.00;;;5.60;99.90;;;;;;4937193;29;20020;-73
2023/11/27 12:50:40;;;;;;;5.00;1.03;;;5.60;99.90;;;;;;4919366;29;20503;-73
2023/11/27 12:53:07;;;;;;;3.07;1.43;;;5.60;99.90;;;;;;4920052;29;20358;-73
2023/11/27 12:55:38;;;;;;;1.83;0.90;;;5.60;99.90;;;;;;4919541;29;20167;-73
2023/11/27 12:58:12;;;;;;;2.70;1.10;;;5.60;99.90;;;;;;4937083;29;20509;-72